createdAt,value
2019-04-26T17:20:48.261Z,51.44
2019-04-26T17:21:47.096Z,51.54
2019-04-26T17:22:57.014Z,51.84
2019-04-26T17:23:48.065Z,51.54
2019-04-26T17:24:47.011Z,51.44
2019-04-26T17:25:46.987Z,51.84
2019-04-26T17:26:50.098Z,51.57
2019-04-26T17:27:47.266Z,52.07
2019-04-26T17:28:47.275Z,52.47
2019-04-26T17:29:55.858Z,52.47
2019-04-26T17:30:48.025Z,51.79
2019-04-26T17:31:47.013Z,52.47
2019-04-26T17:32:47.562Z,52.07
2019-04-26T17:33:48.138Z,52.17
2019-04-26T17:34:46.958Z,52.67
2019-04-26T17:35:46.884Z,53.00
2019-04-26T17:36:50.497Z,52.77
2019-04-26T17:37:47.824Z,52.59
2019-04-26T17:38:46.882Z,52.89
2019-04-26T17:39:47.574Z,52.69
2019-04-26T17:40:46.870Z,53.19
2019-04-26T17:41:50.577Z,52.59
2019-04-26T17:42:47.764Z,53.00
2019-04-26T17:43:50.498Z,53.22
2019-04-26T17:44:47.859Z,53.42
2019-04-26T17:45:46.746Z,53.22
2019-04-26T17:46:48.829Z,53.12
2019-04-26T17:47:54.711Z,53.32
2019-04-26T17:48:49.499Z,53.42
2019-04-26T17:49:46.674Z,53.22
2019-04-26T17:50:46.745Z,53.25
2019-04-26T17:51:46.694Z,53.75
2019-04-26T17:52:46.721Z,53.64
2019-04-26T17:53:48.173Z,53.64
2019-04-26T17:54:49.264Z,53.97
2019-04-26T17:55:52.951Z,53.85
2019-04-26T17:56:47.701Z,54.27
2019-04-26T17:57:48.586Z,54.38
2019-04-26T17:58:52.345Z,54.58
2019-04-26T17:59:49.215Z,54.58
2019-04-26T18:00:46.839Z,54.58
2019-04-26T18:01:51.909Z,54.88
2019-04-26T18:02:48.344Z,54.80
2019-04-26T18:03:52.201Z,54.77
2019-04-26T18:04:58.044Z,54.68
2019-04-26T18:05:56.691Z,54.80
2019-04-26T18:06:57.776Z,54.90
2019-04-26T18:07:56.243Z,55.51
2019-04-26T18:08:54.217Z,54.83
2019-04-26T18:09:47.491Z,55.00
2019-04-26T18:10:46.705Z,55.51
2019-04-26T18:11:46.482Z,56.34
2019-04-26T18:12:46.568Z,55.30
2019-04-26T18:13:47.245Z,55.83
2019-04-26T18:16:35.796Z,55.63
2019-04-26T18:17:39.126Z,55.43
2019-04-26T18:18:36.408Z,55.55
2019-04-26T18:19:35.774Z,55.23
2019-04-26T18:21:56.435Z,56.76
2019-04-26T18:22:53.136Z,56.46
2019-04-26T18:23:54.335Z,56.86
2019-04-26T18:24:52.937Z,56.46
2019-04-26T18:25:52.679Z,56.79
2019-04-26T18:26:58.958Z,56.09
2019-04-26T18:27:53.461Z,57.50
2019-04-26T18:28:55.010Z,57.39
2019-04-26T18:29:53.231Z,57.29
2019-04-26T18:30:53.153Z,57.70
2019-04-26T18:31:53.500Z,57.50
2019-04-26T18:32:51.847Z,57.19
2019-04-26T18:33:54.817Z,57.22
2019-04-26T18:34:53.656Z,57.12
2019-04-26T18:35:55.740Z,57.12
2019-04-26T18:36:52.790Z,58.33
2019-04-26T18:37:53.614Z,57.62
2019-04-26T18:38:53.555Z,57.62
2019-04-26T18:39:53.367Z,57.52
2019-04-26T18:41:01.235Z,57.62
2019-04-26T18:41:53.645Z,58.02
2019-04-26T18:42:53.101Z,57.72
2019-04-26T18:43:54.038Z,58.05
2019-04-26T18:44:54.000Z,58.22
2019-04-26T18:45:53.150Z,58.15
2019-04-26T18:46:53.465Z,58.25
2019-04-26T18:47:54.799Z,58.35
2019-04-26T18:48:53.474Z,58.25
2019-04-26T18:49:58.005Z,58.28
2019-04-26T18:50:52.662Z,57.95
2019-04-26T18:51:51.640Z,58.45
2019-04-26T18:52:52.677Z,58.38
2019-04-26T18:53:53.113Z,58.38
2019-04-26T18:54:52.521Z,58.38
2019-04-26T18:55:51.575Z,58.88
2019-04-26T18:56:51.585Z,59.39
2019-04-26T18:57:55.205Z,59.28
2019-04-26T18:58:55.636Z,59.39
2019-04-26T18:59:52.857Z,58.81
2019-04-26T19:00:53.011Z,59.82
2019-04-26T19:01:53.386Z,59.42
2019-04-26T19:02:53.079Z,59.11
2019-04-26T19:03:51.489Z,59.42
2019-04-26T19:04:52.961Z,59.01
2019-04-26T19:05:51.475Z,59.22
2019-04-26T19:06:51.469Z,59.52
2019-04-26T19:07:51.599Z,59.52
2019-04-26T19:08:52.813Z,59.92
2019-04-26T19:10:02.727Z,60.02
2019-04-26T19:10:59.167Z,59.42
2019-04-26T19:11:53.574Z,59.82
2019-04-26T19:12:52.286Z,60.02
2019-04-26T19:13:51.528Z,59.44
2019-04-26T19:14:58.783Z,59.64
2019-04-26T19:15:52.347Z,59.64
2019-04-26T19:16:56.919Z,59.84
2019-04-26T19:17:52.334Z,59.75
2019-04-26T19:18:51.808Z,59.84
2019-04-26T19:19:51.711Z,59.84
2019-04-26T19:20:51.324Z,60.25
2019-04-26T19:21:54.438Z,59.95
2019-04-26T19:22:53.264Z,60.05
2019-04-26T19:23:51.918Z,60.05
2019-04-26T19:24:55.892Z,60.35
2019-04-26T19:25:52.298Z,60.38
2019-04-26T19:26:51.459Z,59.97
2019-04-26T19:27:53.883Z,60.28
2019-04-26T19:28:52.825Z,60.08
2019-04-26T19:29:51.808Z,60.17
2019-04-26T19:30:53.151Z,60.17
2019-04-26T19:31:52.218Z,60.28
2019-04-26T19:32:52.004Z,60.48
2019-04-26T19:33:51.740Z,59.88
2019-04-26T19:34:52.466Z,59.67
2019-04-26T19:35:51.131Z,60.88
2019-04-26T19:36:52.463Z,60.48
2019-04-26T19:37:51.771Z,60.68
2019-04-26T19:38:51.367Z,60.48
2019-04-26T19:39:51.079Z,60.78
2019-04-26T19:40:52.077Z,60.38
2019-04-26T19:41:52.018Z,60.41
2019-04-26T19:42:57.152Z,60.51
2019-04-26T19:43:52.208Z,60.51
2019-04-26T19:45:10.854Z,60.31
2019-04-26T19:45:52.134Z,61.41
2019-04-26T19:46:53.579Z,60.51
2019-04-26T19:47:52.024Z,60.51
2019-04-26T19:48:55.286Z,61.21
2019-04-26T19:49:52.415Z,61.41
2019-04-26T19:50:52.580Z,61.21
2019-04-26T19:51:52.204Z,61.41
2019-04-26T19:52:51.750Z,61.41
2019-04-26T19:53:51.698Z,61.41
2019-04-26T19:54:52.901Z,61.52
2019-04-26T19:55:51.432Z,61.82
2019-04-26T19:56:51.350Z,61.72
2019-04-26T19:57:51.843Z,61.61
2019-04-26T19:58:57.601Z,61.92
2019-04-26T19:59:52.607Z,62.12
2019-04-26T20:00:52.401Z,61.72
2019-04-26T20:01:55.231Z,61.72
2019-04-26T20:02:52.343Z,61.61
2019-04-26T20:03:52.161Z,61.75
2019-04-26T20:04:51.407Z,62.05
2019-04-26T20:05:52.877Z,61.65
2019-04-26T20:06:52.429Z,61.65
2019-04-26T20:07:51.825Z,62.35
2019-04-26T20:08:51.938Z,61.85
2019-04-26T20:09:52.305Z,62.35
2019-04-26T20:10:52.091Z,62.05
2019-04-26T20:11:57.447Z,62.05
2019-04-26T20:12:52.827Z,62.25
2019-04-26T20:13:51.830Z,61.65
2019-04-26T20:14:54.275Z,62.08
2019-04-26T20:15:53.123Z,61.68
2019-04-26T20:16:52.100Z,61.88
2019-04-26T20:17:59.312Z,62.35
2019-04-26T20:18:52.341Z,61.37
2019-04-26T20:19:52.810Z,62.38
2019-04-26T20:20:52.126Z,61.57
2019-04-26T20:21:52.662Z,61.51
2019-04-26T20:22:51.454Z,62.08
2019-04-26T20:23:53.830Z,62.28
2019-04-26T20:24:55.982Z,61.77
2019-04-26T20:25:53.043Z,62.51
2019-04-26T20:26:52.266Z,62.41
2019-04-26T20:27:53.709Z,62.21
2019-04-26T20:28:51.567Z,62.92
2019-04-26T20:29:51.633Z,62.85
2019-04-26T20:30:51.581Z,62.82
2019-04-26T20:31:52.076Z,63.15
2019-04-26T20:32:52.451Z,63.76
2019-04-26T20:33:51.481Z,63.05
2019-04-26T20:34:50.461Z,63.05
2019-04-26T20:35:51.498Z,63.25
2019-04-26T20:36:52.172Z,63.02
2019-04-26T20:37:51.980Z,63.02
2019-04-26T20:38:52.064Z,63.05
2019-04-26T20:39:54.594Z,63.76
2019-04-26T20:40:53.368Z,63.65
2019-04-26T20:42:00.637Z,63.45
2019-04-26T20:42:53.284Z,63.45
2019-04-26T20:44:04.501Z,63.55
2019-04-26T20:44:53.624Z,63.45
2019-04-26T20:46:08.704Z,63.35
2019-04-26T20:46:51.975Z,63.25
2019-04-26T20:47:51.960Z,63.15
2019-04-26T20:48:52.026Z,63.25
2019-04-26T20:50:00.640Z,63.76
2019-04-26T20:50:52.008Z,63.15
2019-04-26T20:51:51.843Z,63.65
2019-04-26T20:52:53.974Z,63.55
2019-04-26T20:53:51.274Z,62.95
2019-04-26T20:54:51.110Z,63.25
2019-04-26T20:55:50.222Z,63.78
2019-04-26T20:56:55.072Z,63.89
2019-04-26T20:57:51.939Z,63.99
2019-04-26T20:58:51.943Z,64.09
2019-04-26T20:59:52.138Z,64.19
2019-04-26T21:00:54.365Z,63.89
2019-04-26T21:02:02.469Z,65.10
2019-04-26T21:02:54.171Z,64.79
2019-04-26T21:03:51.767Z,63.89
2019-04-26T21:04:51.501Z,64.70
2019-04-26T21:05:52.836Z,64.19
2019-04-26T21:06:52.047Z,64.26
2019-04-26T21:07:51.048Z,63.55
2019-04-26T21:08:52.221Z,63.65
2019-04-26T21:09:50.078Z,63.58
2019-04-26T21:10:50.060Z,63.99
2019-04-26T21:11:51.508Z,63.35
2019-04-26T21:12:52.209Z,62.95
2019-04-26T21:13:51.937Z,62.95
2019-04-26T21:14:50.016Z,62.74
2019-04-26T21:15:57.788Z,62.85
2019-04-26T21:16:51.025Z,62.85
2019-04-26T21:17:51.758Z,62.85
2019-04-26T21:18:49.994Z,62.98
2019-04-26T21:19:54.362Z,62.87
2019-04-26T21:20:52.147Z,62.87
2019-04-26T21:21:50.511Z,63.48
2019-04-26T21:22:49.939Z,63.38
2019-04-26T21:23:49.909Z,63.68
2019-04-26T21:24:50.807Z,63.92
2019-04-26T21:25:49.892Z,64.12
2019-04-26T21:26:51.401Z,64.62
2019-04-26T21:27:51.608Z,64.32
2019-04-26T21:28:51.954Z,64.62
2019-04-26T21:29:52.494Z,64.52
2019-04-26T21:30:51.592Z,65.03
2019-04-26T21:31:49.852Z,65.13
2019-04-26T21:32:51.410Z,65.06
2019-04-26T21:33:50.811Z,65.47
2019-04-26T21:34:50.628Z,65.16
2019-04-26T21:35:49.811Z,65.87
2019-04-26T21:36:49.785Z,65.67
2019-04-26T21:37:55.295Z,65.77
2019-04-26T21:38:50.747Z,65.77
2019-04-26T21:39:49.745Z,65.70
2019-04-26T21:40:49.730Z,66.30
2019-04-26T21:41:49.715Z,66.61
2019-04-26T21:42:55.790Z,65.59
2019-04-26T21:43:50.682Z,66.00
2019-04-26T21:44:52.604Z,66.30
2019-04-26T21:45:49.712Z,66.00
2019-04-26T21:46:53.638Z,66.10
2019-04-26T21:47:50.648Z,66.30
2019-04-26T21:48:49.649Z,66.30
2019-04-26T21:49:54.105Z,66.41
2019-04-26T21:50:50.670Z,67.01
2019-04-26T21:51:52.136Z,67.05
2019-04-26T21:52:49.586Z,67.05
2019-04-26T21:53:49.585Z,67.05
2019-04-26T21:54:53.194Z,67.76
2019-04-26T21:55:50.579Z,67.65
2019-04-26T21:56:49.868Z,67.76
2019-04-26T21:57:49.553Z,67.85
2019-04-26T21:58:49.565Z,68.77
2019-04-26T21:59:49.526Z,68.80
2019-04-26T22:00:49.492Z,69.41
2019-04-26T22:01:53.818Z,69.61
2019-04-26T22:02:50.469Z,69.71
2019-04-26T22:03:54.335Z,70.32
2019-04-26T22:04:50.472Z,70.01
2019-04-26T22:05:50.712Z,70.93
2019-04-26T22:06:49.422Z,71.23
2019-04-26T22:07:49.412Z,71.47
2019-04-26T22:08:49.414Z,72.58
2019-04-26T22:09:49.398Z,72.78
2019-04-26T22:10:49.400Z,73.33
2019-04-26T22:11:53.254Z,74.34
2019-04-26T22:12:50.364Z,75.56
2019-04-26T22:13:49.356Z,76.51
2019-04-26T22:14:50.755Z,79.04
2019-04-26T22:15:50.343Z,82.23
2019-04-26T22:16:49.316Z,82.98
2019-04-26T22:17:49.312Z,85.82
2019-04-26T22:18:54.304Z,85.25
2019-04-26T22:19:50.286Z,85.90
2019-04-26T22:20:52.226Z,86.10
2019-04-26T22:21:49.260Z,89.46
2019-04-26T22:22:49.271Z,91.33
2019-04-26T22:23:51.786Z,92.55
2019-04-26T22:24:49.261Z,92.76
2019-04-26T22:25:49.235Z,93.67
2019-04-26T22:26:49.240Z,91.64
2019-04-26T22:27:49.193Z,93.62
2019-04-26T22:28:49.169Z,93.01
2019-04-26T22:29:51.919Z,94.53
2019-04-26T22:30:49.161Z,94.53
2019-04-26T22:31:49.191Z,94.98
2019-04-26T22:32:54.978Z,96.00
2019-04-26T22:33:50.115Z,95.69
2019-04-26T22:34:49.140Z,95.59
2019-04-26T22:35:50.495Z,94.88
2019-04-26T22:36:50.100Z,96.30
2019-04-26T22:37:49.078Z,95.49
2019-04-26T22:38:49.068Z,95.84
2019-04-26T22:39:49.065Z,96.15
2019-04-26T22:40:54.765Z,94.62
2019-04-26T22:41:50.026Z,95.94
2019-04-26T22:42:49.063Z,96.15
2019-04-26T22:43:49.619Z,96.66
2019-04-26T22:44:49.005Z,96.66
2019-04-26T22:45:48.989Z,96.66
2019-04-26T22:46:49.652Z,97.37
2019-04-26T22:47:48.981Z,97.16
2019-04-26T22:48:54.916Z,97.06
2019-04-26T22:49:49.960Z,96.25
2019-04-26T22:50:52.016Z,97.31
2019-04-26T22:51:49.914Z,96.80
2019-04-26T22:52:51.566Z,98.23
2019-04-26T22:53:48.883Z,99.15
2019-04-26T22:54:48.915Z,97.11
2019-04-26T22:55:48.873Z,97.11
2019-04-26T22:56:48.902Z,98.48
2019-04-26T22:57:49.515Z,98.99
2019-04-26T22:58:48.848Z,99.45
2019-04-26T22:59:50.369Z,99.15
2019-04-26T23:00:48.804Z,99.40
2019-04-26T23:01:49.053Z,99.19
2019-04-26T23:02:48.793Z,99.09
2019-04-26T23:03:48.782Z,97.77
2019-04-26T23:04:48.754Z,98.02
2019-04-26T23:05:48.759Z,97.36
2019-04-26T23:06:48.807Z,98.07
2019-04-26T23:07:48.750Z,98.32
2019-04-26T23:08:48.711Z,98.22
2019-04-26T23:09:51.892Z,97.81
2019-04-26T23:10:48.699Z,97.91
2019-04-26T23:11:49.494Z,97.91
2019-04-26T23:12:48.668Z,97.40
2019-04-26T23:13:48.657Z,97.09
2019-04-26T23:14:52.175Z,98.36
2019-04-26T23:15:49.637Z,97.04
2019-04-26T23:17:01.645Z,96.38
2019-04-26T23:17:49.664Z,96.73
2019-04-26T23:18:48.623Z,97.96
2019-04-26T23:19:49.409Z,98.36
2019-04-26T23:20:48.590Z,97.34
2019-04-26T23:21:52.970Z,97.45
2019-04-26T23:22:49.560Z,98.16
2019-04-26T23:23:48.625Z,96.22
2019-04-26T23:24:49.252Z,97.04
2019-04-26T23:25:48.521Z,97.04
2019-04-26T23:26:48.604Z,95.72
2019-04-26T23:27:50.465Z,97.34
2019-04-26T23:28:49.507Z,97.86
2019-04-26T23:29:49.827Z,98.27
2019-04-26T23:30:49.466Z,96.33
2019-04-26T23:31:48.543Z,98.27
2019-04-26T23:32:51.941Z,97.49
2019-04-26T23:33:48.429Z,97.86
2019-04-26T23:34:48.443Z,98.52
2019-04-26T23:35:48.430Z,98.27
2019-04-26T23:36:50.132Z,97.29
2019-04-26T23:37:48.394Z,96.43
2019-04-26T23:38:48.407Z,96.58
2019-04-26T23:39:49.414Z,98.27
2019-04-26T23:40:48.362Z,98.47
2019-04-26T23:41:48.351Z,98.21
2019-04-26T23:42:51.678Z,97.75
2019-04-26T23:43:48.343Z,98.21
2019-04-26T23:44:48.337Z,95.86
2019-04-26T23:45:49.321Z,96.37
2019-04-26T23:46:48.304Z,96.17
2019-04-26T23:47:48.276Z,95.86
2019-04-26T23:48:49.706Z,96.06
2019-04-26T23:49:49.325Z,95.35
2019-04-26T23:50:49.481Z,96.17
2019-04-26T23:51:48.240Z,96.58
2019-04-26T23:52:49.507Z,94.94
2019-04-26T23:53:50.514Z,95.15
2019-04-26T23:54:48.210Z,95.96
2019-04-26T23:55:48.175Z,96.47
2019-04-26T23:56:48.179Z,96.78
2019-04-26T23:57:48.171Z,95.04
2019-04-26T23:58:48.147Z,96.68
2019-04-26T23:59:51.084Z,96.17
